Time;durP1;ratioP1;P1;durP2;ratioP2;P2;SDS_P1;SDS_P2;PMS_P1;PMS_P2;Temp;Humidity;BMP_temperature;BMP_pressure;BME280_temperature;BME280_humidity;BME280_pressure;Samples;Min_cycle;Max_cycle;Signal;HPM_P1;HPM_P2
2023/02/27 00:00:55;;;;;;;4.10;1.73;;;20.70;72.70;;;;;;5050576;28;20575;-65
2023/02/27 00:03:22;;;;;;;4.00;2.22;;;20.60;72.60;;;;;;5049512;28;20199;-65
2023/02/27 00:05:48;;;;;;;6.07;2.75;;;20.60;72.60;;;;;;5048940;28;20200;-65
2023/02/27 00:08:15;;;;;;;3.83;2.15;;;20.60;73.40;;;;;;5043186;28;20200;-66
2023/02/27 00:10:42;;;;;;;4.60;2.58;;;20.60;72.60;;;;;;5038402;28;20189;-65
2023/02/27 00:13:10;;;;;;;4.13;2.13;;;20.60;72.50;;;;;;5046463;28;20654;-65
2023/02/27 00:15:37;;;;;;;4.53;2.67;;;20.60;72.50;;;;;;5045140;28;20486;-66
2023/02/27 00:18:04;;;;;;;2.50;2.03;;;20.60;72.50;;;;;;5043958;28;20257;-65
2023/02/27 00:20:36;;;;;;;4.95;1.95;;;20.60;72.50;;;;;;5051289;28;20200;-65
2023/02/27 00:23:03;;;;;;;5.90;2.63;;;20.60;72.50;;;;;;5039612;28;20219;-65
2023/02/27 00:25:30;;;;;;;3.92;1.90;;;20.60;72.60;;;;;;5043223;28;20207;-65
2023/02/27 00:27:57;;;;;;;3.97;2.35;;;20.60;73.30;;;;;;5047513;28;20230;-65
2023/02/27 00:30:25;;;;;;;4.75;2.17;;;20.60;72.50;;;;;;5046613;28;21322;-65
2023/02/27 00:32:52;;;;;;;2.92;1.65;;;20.60;72.50;;;;;;5041615;28;20206;-65
2023/02/27 00:35:19;;;;;;;4.03;2.10;;;20.60;72.50;;;;;;5041933;28;20220;-65
2023/02/27 00:37:46;;;;;;;3.85;2.70;;;20.60;72.50;;;;;;5046764;28;20507;-65
2023/02/27 00:40:14;;;;;;;6.45;2.42;;;20.60;72.50;;;;;;5048808;28;20203;-65
2023/02/27 00:42:40;;;;;;;3.00;2.13;;;20.60;72.40;;;;;;5048598;28;20211;-65
2023/02/27 00:45:08;;;;;;;3.50;2.42;;;20.60;72.40;;;;;;5047775;28;20199;-65
2023/02/27 00:47:36;;;;;;;3.60;2.33;;;20.60;72.40;;;;;;5041635;28;20246;-65
2023/02/27 00:50:04;;;;;;;2.85;1.90;;;20.60;72.40;;;;;;5049845;28;20200;-65
2023/02/27 00:52:32;;;;;;;4.05;3.38;;;20.60;72.40;;;;;;5048619;28;20659;-65
2023/02/27 00:54:59;;;;;;;3.85;1.70;;;20.60;72.40;;;;;;5041445;28;20223;-65
2023/02/27 00:57:26;;;;;;;3.50;1.85;;;20.60;72.40;;;;;;5048771;28;20199;-65
2023/02/27 00:59:53;;;;;;;3.25;2.00;;;20.60;72.40;;;;;;5044108;28;20199;-64
2023/02/27 01:02:20;;;;;;;3.58;1.90;;;20.60;72.40;;;;;;5048783;28;20191;-65
2023/02/27 01:04:48;;;;;;;4.18;2.38;;;20.60;72.40;;;;;;5048611;28;20191;-65
2023/02/27 01:07:14;;;;;;;3.03;1.83;;;20.60;72.40;;;;;;5045686;28;20199;-65
2023/02/27 01:09:41;;;;;;;3.38;2.13;;;20.60;72.40;;;;;;5045067;28;20199;-65
2023/02/27 01:12:08;;;;;;;5.78;2.30;;;20.60;72.40;;;;;;5048850;28;20198;-65
2023/02/27 01:14:35;;;;;;;3.35;2.22;;;20.60;72.40;;;;;;5045990;28;20841;-65
2023/02/27 01:17:02;;;;;;;1.80;1.33;;;20.60;72.40;;;;;;5043540;28;20191;-65
2023/02/27 01:19:29;;;;;;;2.15;1.67;;;20.60;72.40;;;;;;5040312;28;20211;-65
2023/02/27 01:21:57;;;;;;;3.78;1.90;;;20.60;72.40;;;;;;5032595;28;20219;-65
2023/02/27 01:24:23;;;;;;;2.60;1.40;;;20.60;72.40;;;;;;5032077;28;20200;-65
2023/02/27 01:26:51;;;;;;;2.80;1.50;;;20.60;72.40;;;;;;5036919;28;20204;-65
2023/02/27 01:29:18;;;;;;;5.90;2.00;;;20.60;72.40;;;;;;5049056;28;20310;-65
2023/02/27 01:31:44;;;;;;;2.80;1.70;;;20.50;72.30;;;;;;5036597;28;20196;-65
2023/02/27 01:34:11;;;;;;;5.10;2.40;;;20.50;72.30;;;;;;5041986;28;20202;-65
2023/02/27 01:36:38;;;;;;;2.28;1.73;;;20.50;72.30;;;;;;5045329;28;20199;-65
2023/02/27 01:39:06;;;;;;;2.53;1.70;;;20.50;72.30;;;;;;5048250;28;20203;-66
2023/02/27 01:41:33;;;;;;;4.25;1.52;;;20.50;72.30;;;;;;5046279;28;20210;-65
2023/02/27 01:44:02;;;;;;;2.60;1.98;;;20.50;72.30;;;;;;5045735;28;20199;-65
2023/02/27 01:46:30;;;;;;;3.55;2.00;;;20.50;72.30;;;;;;5042978;28;20219;-65
2023/02/27 01:49:03;;;;;;;2.30;1.60;;;20.50;72.20;;;;;;5042982;28;20923;-65
2023/02/27 01:51:34;;;;;;;4.35;1.90;;;20.50;72.60;;;;;;5045996;28;20202;-65
2023/02/27 01:54:04;;;;;;;2.00;1.30;;;20.50;72.30;;;;;;5040017;28;20329;-65
2023/02/27 01:56:32;;;;;;;2.85;1.65;;;20.50;72.30;;;;;;5044101;28;20212;-65
2023/02/27 01:59:03;;;;;;;2.60;1.60;;;20.50;72.30;;;;;;5045932;28;20642;-65
2023/02/27 02:01:31;;;;;;;2.47;1.50;;;20.50;72.30;;;;;;5040670;28;20196;-65
2023/02/27 02:04:02;;;;;;;3.03;1.90;;;20.50;72.30;;;;;;5040869;28;20202;-65
2023/02/27 02:06:30;;;;;;;2.50;1.95;;;20.50;72.30;;;;;;5033399;28;20579;-66
2023/02/27 02:08:59;;;;;;;2.50;1.85;;;20.50;72.30;;;;;;5045551;28;20207;-65
2023/02/27 02:11:27;;;;;;;4.65;2.45;;;20.50;72.30;;;;;;5045827;28;20198;-65
2023/02/27 02:13:57;;;;;;;2.72;2.00;;;20.50;72.30;;;;;;5041174;28;20199;-65
2023/02/27 02:16:43;;;;;;;2.33;1.30;;;20.50;72.30;;;;;;5047513;28;20219;-65
2023/02/27 02:19:32;;;;;;;3.00;1.60;;;20.50;72.30;;;;;;5044988;28;20203;-65
2023/02/27 02:22:43;;;;;;;2.85;1.60;;;20.50;72.30;;;;;;5042226;28;20222;-65
2023/02/27 02:25:39;;;;;;;2.50;1.95;;;20.50;72.30;;;;;;5003411;28;20207;-65
2023/02/27 02:28:19;;;;;;;2.47;1.30;;;20.50;72.30;;;;;;5005903;28;20218;-66
2023/02/27 02:31:34;;;;;;;2.28;1.77;;;20.50;72.30;;;;;;5035832;28;20202;-65
2023/02/27 02:34:34;;;;;;;3.10;1.90;;;20.40;72.10;;;;;;4956841;28;20198;-65
2023/02/27 02:37:33;;;;;;;2.63;1.30;;;20.40;72.20;;;;;;4948826;28;20202;-66
2023/02/27 02:40:13;;;;;;;2.92;1.90;;;20.40;72.10;;;;;;5037748;28;20206;-65
2023/02/27 02:42:48;;;;;;;2.30;1.67;;;20.40;72.20;;;;;;5045458;28;20195;-65
2023/02/27 02:45:22;;;;;;;3.05;2.10;;;20.40;72.20;;;;;;5045913;28;20199;-65
2023/02/27 02:48:00;;;;;;;2.40;1.42;;;20.40;72.20;;;;;;5044673;28;20207;-65
2023/02/27 02:50:30;;;;;;;2.35;1.60;;;20.40;72.20;;;;;;5048237;28;20226;-65
2023/02/27 02:53:06;;;;;;;3.70;1.63;;;20.40;72.20;;;;;;5045208;28;20327;-65
2023/02/27 02:55:37;;;;;;;1.45;1.30;;;20.40;72.20;;;;;;5033381;28;20662;-65
2023/02/27 02:58:10;;;;;;;2.15;1.50;;;20.40;72.20;;;;;;5040533;28;20196;-65
2023/02/27 03:00:41;;;;;;;2.40;1.60;;;20.40;72.20;;;;;;5037743;28;20203;-65
2023/02/27 03:03:12;;;;;;;2.75;1.38;;;20.40;72.20;;;;;;5046012;28;20262;-65
2023/02/27 03:05:46;;;;;;;1.92;1.58;;;20.40;72.20;;;;;;5041914;28;20550;-65
2023/02/27 03:08:17;;;;;;;3.28;1.85;;;20.40;72.30;;;;;;5037673;28;20544;-65
2023/02/27 03:10:50;;;;;;;2.65;1.65;;;20.40;72.30;;;;;;5038675;28;20594;-65
2023/02/27 03:13:23;;;;;;;2.65;1.60;;;20.40;72.20;;;;;;5047115;28;20192;-65
2023/02/27 03:15:56;;;;;;;2.33;1.80;;;20.40;72.30;;;;;;5042979;28;20215;-65
2023/02/27 03:18:27;;;;;;;1.80;1.65;;;20.40;72.20;;;;;;5034055;28;20199;-65
2023/02/27 03:20:57;;;;;;;2.10;1.60;;;20.40;72.30;;;;;;5028285;28;20545;-65
2023/02/27 03:23:29;;;;;;;2.20;1.20;;;20.40;72.30;;;;;;5038841;28;20219;-66
2023/02/27 03:25:58;;;;;;;2.00;1.55;;;20.40;72.30;;;;;;5047974;28;20218;-65
2023/02/27 03:28:29;;;;;;;1.63;1.23;;;20.40;72.30;;;;;;5044408;28;20196;-65
2023/02/27 03:31:00;;;;;;;3.08;1.70;;;20.40;72.30;;;;;;5047564;28;20203;-64
2023/02/27 03:33:31;;;;;;;1.63;1.52;;;20.40;72.30;;;;;;5038395;28;20204;-65
2023/02/27 03:36:07;;;;;;;1.70;1.20;;;20.40;72.30;;;;;;5041405;28;20211;-65
2023/02/27 03:38:40;;;;;;;2.80;1.88;;;20.40;72.30;;;;;;5044869;28;20207;-65
2023/02/27 03:41:13;;;;;;;2.90;1.83;;;20.40;72.30;;;;;;5042439;28;20287;-65
2023/02/27 03:43:46;;;;;;;1.65;1.20;;;20.40;72.30;;;;;;5045457;28;20207;-65
2023/02/27 03:46:15;;;;;;;2.83;1.50;;;20.40;72.30;;;;;;5050903;28;20195;-65
2023/02/27 03:48:43;;;;;;;2.17;1.35;;;20.40;72.30;;;;;;5044131;28;20192;-65
2023/02/27 03:51:11;;;;;;;2.20;1.63;;;20.40;72.30;;;;;;5046315;28;20218;-65
2023/02/27 03:53:43;;;;;;;1.20;1.10;;;20.40;72.30;;;;;;5041094;28;20319;-65
2023/02/27 03:56:14;;;;;;;2.42;1.50;;;20.40;72.30;;;;;;5045101;28;20241;-65
2023/02/27 03:58:41;;;;;;;2.55;1.60;;;20.30;72.20;;;;;;5046962;28;20191;-65
2023/02/27 04:01:08;;;;;;;2.08;1.33;;;20.30;72.10;;;;;;5049054;28;20606;-65
2023/02/27 04:03:43;;;;;;;2.67;1.33;;;20.30;72.20;;;;;;5048471;28;20222;-65
2023/02/27 04:09:02;;;;;;;2.22;1.35;;;20.30;72.10;;;;;;5039770;28;20199;-65
2023/02/27 04:12:02;;;;;;;1.58;1.38;;;20.30;72.20;;;;;;5044953;28;20224;-65
2023/02/27 04:14:46;;;;;;;2.15;1.38;;;20.30;72.10;;;;;;5040182;28;20196;-65
2023/02/27 04:17:21;;;;;;;2.05;1.58;;;20.30;72.20;;;;;;5045903;28;20253;-64
2023/02/27 04:20:17;;;;;;;1.98;1.15;;;20.30;72.20;;;;;;5040158;28;20191;-65
2023/02/27 04:22:49;;;;;;;1.48;1.30;;;20.30;72.20;;;;;;5042540;28;20212;-65
2023/02/27 04:25:27;;;;;;;4.25;1.63;;;20.30;72.20;;;;;;5040340;28;20679;-65
2023/02/27 04:27:59;;;;;;;2.30;1.38;;;20.30;72.20;;;;;;5045622;28;20218;-65
2023/02/27 04:30:30;;;;;;;1.58;1.10;;;20.30;72.20;;;;;;5047921;28;20278;-65
2023/02/27 04:33:07;;;;;;;1.90;1.40;;;20.30;72.10;;;;;;5042507;28;20203;-66
2023/02/27 04:35:39;;;;;;;1.95;1.23;;;20.30;72.20;;;;;;5046535;28;20222;-65
2023/02/27 04:38:13;;;;;;;1.95;1.10;;;20.30;72.10;;;;;;5047908;28;20207;-65
2023/02/27 04:40:44;;;;;;;2.70;1.30;;;20.30;72.20;;;;;;5038619;28;20669;-65
2023/02/27 04:43:14;;;;;;;2.42;1.38;;;20.30;72.10;;;;;;5043841;28;20567;-65
2023/02/27 04:45:44;;;;;;;1.70;1.55;;;20.30;72.20;;;;;;5040615;28;20203;-65
2023/02/27 04:48:18;;;;;;;2.15;1.77;;;20.30;72.30;;;;;;5041457;28;20610;-65
2023/02/27 04:50:50;;;;;;;2.42;1.52;;;20.30;72.10;;;;;;5040404;28;20206;-65
2023/02/27 04:53:21;;;;;;;1.60;1.10;;;20.30;72.10;;;;;;5044612;28;20199;-65
2023/02/27 04:55:52;;;;;;;1.55;1.20;;;20.30;72.20;;;;;;5036454;28;20230;-65
2023/02/27 04:58:23;;;;;;;2.15;1.33;;;20.30;72.20;;;;;;5039629;28;20648;-65
2023/02/27 05:00:56;;;;;;;2.40;1.60;;;20.30;72.10;;;;;;5039412;28;20678;-65
2023/02/27 05:03:25;;;;;;;1.60;1.20;;;20.30;72.10;;;;;;5047785;28;20647;-65
2023/02/27 05:05:57;;;;;;;2.22;1.58;;;20.30;72.20;;;;;;5041253;28;20197;-65
2023/02/27 05:08:29;;;;;;;1.25;0.90;;;20.30;72.20;;;;;;5043878;28;20206;-65
2023/02/27 05:11:02;;;;;;;1.40;1.05;;;20.30;72.20;;;;;;5043331;28;20195;-65
2023/02/27 05:13:37;;;;;;;2.13;1.42;;;20.30;72.20;;;;;;5038170;28;20748;-65
2023/02/27 05:16:10;;;;;;;1.70;1.27;;;20.30;72.10;;;;;;5044094;28;20690;-65
2023/02/27 05:18:37;;;;;;;1.15;0.90;;;20.30;72.10;;;;;;5026116;28;20571;-65
2023/02/27 05:21:14;;;;;;;1.88;1.38;;;20.30;72.10;;;;;;5030022;28;20203;-65
2023/02/27 05:23:49;;;;;;;1.83;1.20;;;20.30;72.10;;;;;;5040109;28;20194;-65
2023/02/27 05:26:20;;;;;;;1.60;1.23;;;20.30;72.10;;;;;;5041643;28;20256;-65
2023/02/27 05:28:53;;;;;;;1.90;1.00;;;20.30;72.10;;;;;;5038749;28;20203;-65
2023/02/27 05:31:26;;;;;;;1.92;1.10;;;20.30;72.10;;;;;;5044558;28;20247;-65
2023/02/27 05:33:59;;;;;;;1.92;1.25;;;20.30;72.10;;;;;;5043982;28;20192;-65
2023/02/27 05:36:32;;;;;;;1.92;1.20;;;20.30;72.10;;;;;;5043374;28;20760;-65
2023/02/27 05:39:02;;;;;;;1.63;1.10;;;20.20;72.00;;;;;;5043780;28;20559;-65
2023/02/27 05:41:33;;;;;;;1.65;1.17;;;20.30;72.90;;;;;;5046990;28;20219;-65
2023/02/27 05:44:08;;;;;;;2.20;1.10;;;20.20;72.00;;;;;;5044666;28;20589;-65
2023/02/27 05:46:38;;;;;;;2.00;1.10;;;20.20;72.00;;;;;;5042762;28;20206;-65
2023/02/27 05:49:10;;;;;;;1.42;1.10;;;20.20;72.80;;;;;;5042870;28;20532;-65
2023/02/27 05:51:39;;;;;;;1.20;0.90;;;20.20;72.00;;;;;;5049252;28;20203;-65
2023/02/27 05:54:10;;;;;;;1.10;0.93;;;20.20;72.00;;;;;;5046284;28;20213;-64
2023/02/27 05:56:39;;;;;;;1.98;1.10;;;20.20;72.00;;;;;;5045026;28;20223;-65
2023/02/27 05:59:16;;;;;;;1.58;1.20;;;20.20;72.00;;;;;;5049286;28;20201;-65
2023/02/27 06:01:43;;;;;;;2.28;1.10;;;20.20;72.00;;;;;;5045343;28;20195;-65
2023/02/27 06:04:10;;;;;;;1.80;1.13;;;20.20;72.00;;;;;;5047797;28;20200;-65
2023/02/27 06:06:37;;;;;;;1.70;1.33;;;20.20;72.00;;;;;;5041118;28;20212;-65
2023/02/27 06:09:03;;;;;;;2.03;1.27;;;20.20;72.00;;;;;;5044739;28;20227;-65
2023/02/27 06:11:30;;;;;;;1.45;1.25;;;20.20;72.00;;;;;;5042304;28;20196;-65
2023/02/27 06:13:57;;;;;;;2.10;1.40;;;20.20;72.00;;;;;;5042101;28;20207;-65
2023/02/27 06:16:25;;;;;;;1.48;1.05;;;20.20;72.00;;;;;;5044264;28;20227;-65
2023/02/27 06:18:52;;;;;;;1.65;1.00;;;20.20;72.00;;;;;;5046050;28;20200;-65
2023/02/27 06:21:18;;;;;;;1.52;1.17;;;20.20;72.00;;;;;;5039245;28;20200;-65
2023/02/27 06:23:45;;;;;;;1.60;1.20;;;20.20;72.00;;;;;;5040964;28;20195;-65
2023/02/27 06:26:13;;;;;;;1.42;1.00;;;20.20;72.00;;;;;;5043751;28;20196;-65
2023/02/27 06:28:41;;;;;;;1.23;1.00;;;20.20;72.00;;;;;;5035392;28;20252;-65
2023/02/27 06:31:07;;;;;;;1.30;1.10;;;20.20;71.90;;;;;;5040257;28;20278;-65
2023/02/27 06:33:35;;;;;;;1.10;1.00;;;20.20;71.90;;;;;;5045307;28;20200;-65
2023/02/27 06:36:02;;;;;;;1.30;0.93;;;20.20;71.90;;;;;;5037673;28;20973;-65
2023/02/27 06:38:30;;;;;;;1.30;1.00;;;20.20;71.90;;;;;;5043804;28;20199;-65
2023/02/27 06:40:57;;;;;;;1.90;1.40;;;20.20;71.90;;;;;;5037881;28;20197;-65
2023/02/27 06:43:24;;;;;;;1.95;1.10;;;20.20;71.80;;;;;;5047742;28;20675;-65
2023/02/27 06:45:53;;;;;;;1.25;1.05;;;20.10;71.70;;;;;;5046028;28;20657;-65
2023/02/27 06:48:20;;;;;;;1.25;1.00;;;20.10;71.70;;;;;;5041704;28;20204;-65
2023/02/27 06:50:52;;;;;;;1.42;1.20;;;20.10;71.70;;;;;;5047794;28;20191;-65
2023/02/27 06:53:19;;;;;;;1.35;1.00;;;20.10;71.70;;;;;;5042571;28;20667;-65
2023/02/27 06:55:46;;;;;;;2.88;1.55;;;20.10;71.70;;;;;;5038554;28;20207;-65
2023/02/27 06:58:12;;;;;;;1.48;1.10;;;20.10;71.80;;;;;;5046227;28;20215;-65
2023/02/27 07:00:39;;;;;;;1.30;1.13;;;20.10;71.80;;;;;;5037599;28;20330;-65
2023/02/27 07:03:06;;;;;;;1.17;0.88;;;20.10;71.80;;;;;;5044928;28;20199;-65
2023/02/27 07:05:33;;;;;;;1.73;1.27;;;20.10;71.80;;;;;;5040477;28;20206;-65
2023/02/27 07:08:02;;;;;;;1.33;1.10;;;20.20;71.90;;;;;;5036202;28;20215;-66
2023/02/27 07:10:29;;;;;;;1.20;0.85;;;20.20;71.90;;;;;;5037648;28;20199;-65
2023/02/27 07:12:55;;;;;;;1.70;1.15;;;20.20;71.90;;;;;;5046345;28;20191;-65
2023/02/27 07:15:22;;;;;;;2.05;1.27;;;20.20;71.90;;;;;;5031799;28;20603;-64
2023/02/27 07:17:49;;;;;;;1.23;1.10;;;20.20;71.90;;;;;;5034364;28;20434;-65
2023/02/27 07:20:16;;;;;;;1.02;0.80;;;20.20;71.80;;;;;;5017490;28;20196;-65
2023/02/27 07:22:43;;;;;;;1.55;1.23;;;20.30;72.00;;;;;;5019939;28;20722;-65
2023/02/27 07:25:11;;;;;;;1.58;1.05;;;20.30;72.80;;;;;;5027312;28;20196;-66
2023/02/27 07:27:38;;;;;;;1.42;0.90;;;20.30;71.90;;;;;;5042124;28;20198;-65
2023/02/27 07:30:06;;;;;;;1.73;1.00;;;20.30;71.90;;;;;;5043617;28;20202;-66
2023/02/27 07:32:32;;;;;;;1.13;0.90;;;20.30;71.90;;;;;;5040521;28;20203;-65
2023/02/27 07:34:59;;;;;;;1.10;1.00;;;20.30;71.90;;;;;;5042908;28;20614;-65
2023/02/27 07:37:26;;;;;;;1.30;1.00;;;20.30;71.80;;;;;;5042366;28;20219;-65
2023/02/27 07:39:52;;;;;;;1.17;1.08;;;20.30;71.80;;;;;;5041662;28;20204;-65
2023/02/27 07:42:20;;;;;;;1.60;1.02;;;20.30;71.80;;;;;;5044151;28;20191;-64
2023/02/27 07:44:47;;;;;;;3.00;1.48;;;20.30;71.90;;;;;;5041346;28;20203;-65
2023/02/27 07:47:16;;;;;;;1.27;1.00;;;20.30;71.80;;;;;;5045675;28;20208;-65
2023/02/27 07:49:43;;;;;;;1.20;1.10;;;20.30;71.80;;;;;;5039437;28;20192;-65
2023/02/27 07:52:10;;;;;;;1.67;1.20;;;20.30;71.90;;;;;;5047235;28;20199;-65
2023/02/27 07:54:37;;;;;;;1.63;1.10;;;20.30;71.80;;;;;;5039885;28;20204;-65
2023/02/27 07:57:03;;;;;;;1.63;1.20;;;20.30;71.80;;;;;;5049125;28;20309;-65
2023/02/27 07:59:32;;;;;;;1.95;1.02;;;20.30;71.90;;;;;;5046318;28;20195;-65
2023/02/27 08:01:58;;;;;;;1.50;1.00;;;20.30;71.90;;;;;;5047044;28;20195;-65
2023/02/27 08:04:25;;;;;;;1.73;1.40;;;20.30;72.00;;;;;;5039893;28;20575;-66
2023/02/27 08:06:52;;;;;;;1.77;0.88;;;20.30;72.80;;;;;;5043833;28;20195;-65
2023/02/27 08:09:18;;;;;;;1.40;1.30;;;20.30;72.00;;;;;;5044328;28;20560;-65
2023/02/27 08:11:45;;;;;;;1.50;1.05;;;20.30;72.10;;;;;;5045360;28;20199;-65
2023/02/27 08:14:12;;;;;;;1.75;0.90;;;20.30;72.10;;;;;;5044035;28;20199;-65
2023/02/27 08:16:40;;;;;;;1.38;0.95;;;20.30;72.10;;;;;;5045059;28;20718;-65
2023/02/27 08:19:07;;;;;;;1.48;1.10;;;20.30;72.10;;;;;;5043225;28;20200;-66
2023/02/27 08:21:33;;;;;;;1.20;1.00;;;20.30;72.10;;;;;;5048055;28;20226;-65
2023/02/27 08:24:00;;;;;;;1.20;1.08;;;20.30;72.20;;;;;;5041393;28;20618;-65
2023/02/27 08:26:27;;;;;;;1.63;1.25;;;20.30;72.20;;;;;;5044859;28;20229;-65
2023/02/27 08:28:53;;;;;;;3.05;0.90;;;20.30;72.20;;;;;;5041993;28;20206;-65
2023/02/27 08:31:20;;;;;;;1.08;0.80;;;20.40;73.10;;;;;;5045555;28;20601;-65
2023/02/27 08:33:49;;;;;;;1.27;0.80;;;20.40;72.30;;;;;;5042761;28;20194;-65
2023/02/27 08:36:15;;;;;;;2.03;1.10;;;20.40;72.30;;;;;;5044437;28;20200;-65
2023/02/27 08:38:43;;;;;;;1.45;1.00;;;20.40;73.10;;;;;;5038925;28;20226;-65
2023/02/27 08:41:09;;;;;;;1.65;1.00;;;20.40;72.30;;;;;;5040852;28;20265;-65
2023/02/27 08:43:36;;;;;;;1.10;0.90;;;20.40;72.20;;;;;;5043609;28;20215;-66
2023/02/27 08:46:03;;;;;;;1.70;1.17;;;20.40;72.30;;;;;;5034857;28;20192;-66
2023/02/27 08:48:29;;;;;;;7.63;1.25;;;20.40;72.30;;;;;;5041064;28;20572;-65
2023/02/27 08:50:57;;;;;;;2.85;1.55;;;20.40;72.70;;;;;;5040613;28;20194;-64
2023/02/27 08:53:25;;;;;;;1.30;1.10;;;20.40;72.60;;;;;;5040520;28;20187;-55
2023/02/27 08:55:52;;;;;;;4.20;1.02;;;20.40;72.50;;;;;;5042583;28;20199;-54
2023/02/27 08:58:19;;;;;;;1.60;1.02;;;20.40;72.60;;;;;;5042176;28;20223;-54
2023/02/27 09:00:45;;;;;;;1.48;1.10;;;20.40;72.50;;;;;;5039307;28;20578;-58
2023/02/27 09:03:12;;;;;;;1.05;0.95;;;20.40;72.60;;;;;;5044424;28;20211;-61
2023/02/27 09:05:40;;;;;;;1.80;1.10;;;20.50;72.80;;;;;;5040753;28;20203;-59
2023/02/27 09:08:08;;;;;;;2.45;0.90;;;20.50;72.80;;;;;;5043660;28;20294;-58
2023/02/27 09:10:35;;;;;;;2.22;1.05;;;20.50;72.90;;;;;;5036631;28;20211;-59
2023/02/27 09:13:02;;;;;;;2.17;0.80;;;20.50;72.90;;;;;;5044092;28;20211;-57
2023/02/27 09:15:30;;;;;;;1.10;1.00;;;20.50;73.00;;;;;;5041403;28;20195;-64
2023/02/27 09:18:01;;;;;;;3.80;1.30;;;20.50;73.10;;;;;;5045734;28;20231;-64
2023/02/27 09:20:28;;;;;;;1.40;1.00;;;20.50;73.10;;;;;;5044184;28;20200;-64
2023/02/27 09:22:55;;;;;;;1.10;0.90;;;20.50;73.10;;;;;;5044013;28;20215;-65
2023/02/27 09:25:23;;;;;;;2.72;1.48;;;20.40;72.70;;;;;;5046485;28;20760;-65
2023/02/27 09:27:50;;;;;;;1.42;1.15;;;20.40;72.60;;;;;;5048674;28;20348;-66
2023/02/27 09:30:17;;;;;;;1.70;1.10;;;20.40;72.60;;;;;;5044623;28;20199;-66
2023/02/27 09:32:44;;;;;;;1.17;0.90;;;20.40;72.50;;;;;;5047420;28;20195;-66
2023/02/27 09:35:12;;;;;;;1.90;0.90;;;20.40;72.40;;;;;;5048087;28;20195;-66
2023/02/27 09:37:39;;;;;;;1.13;0.93;;;20.40;72.50;;;;;;5040561;28;20301;-66
2023/02/27 09:40:07;;;;;;;2.42;1.20;;;20.40;72.40;;;;;;5041435;28;20306;-66
2023/02/27 09:42:41;;;;;;;1.10;0.85;;;20.40;72.30;;;;;;5044083;28;20317;-66
2023/02/27 09:45:13;;;;;;;2.58;1.10;;;20.40;72.30;;;;;;5042530;28;20198;-65
2023/02/27 09:47:44;;;;;;;3.08;1.23;;;20.40;72.30;;;;;;5045278;28;20200;-66
2023/02/27 09:50:32;;;;;;;1.92;1.10;;;20.40;72.30;;;;;;5042086;28;20245;-66
2023/02/27 09:52:59;;;;;;;2.30;1.10;;;20.40;72.10;;;;;;5046225;28;20692;-65
2023/02/27 09:55:30;;;;;;;1.20;0.98;;;20.40;72.10;;;;;;5042792;28;20547;-65
2023/02/27 09:58:06;;;;;;;1.30;0.80;;;20.40;72.10;;;;;;5044905;28;20220;-65
2023/02/27 10:00:46;;;;;;;1.48;1.00;;;20.50;72.20;;;;;;5041385;28;20608;-66
2023/02/27 10:03:30;;;;;;;1.42;1.15;;;20.40;72.00;;;;;;5048188;28;20202;-65
2023/02/27 10:06:15;;;;;;;1.10;0.88;;;20.40;72.00;;;;;;5042303;28;20199;-66
2023/02/27 10:08:49;;;;;;;1.65;0.95;;;20.40;72.00;;;;;;5042300;28;20198;-66
2023/02/27 10:11:23;;;;;;;1.50;1.20;;;20.40;72.80;;;;;;5041046;28;20232;-66
2023/02/27 10:13:59;;;;;;;1.27;1.00;;;20.40;71.90;;;;;;5033040;28;20225;-66
2023/02/27 10:16:26;;;;;;;1.20;1.00;;;20.40;71.90;;;;;;5032618;28;20195;-64
2023/02/27 10:18:57;;;;;;;1.95;1.15;;;20.40;71.80;;;;;;5044031;28;20762;-66
2023/02/27 10:21:30;;;;;;;1.50;1.40;;;20.40;71.80;;;;;;5038137;28;20215;-66
2023/02/27 10:24:01;;;;;;;1.10;0.80;;;20.40;71.70;;;;;;5041908;28;20223;-64
2023/02/27 10:26:31;;;;;;;1.67;0.80;;;20.40;71.60;;;;;;5031314;28;20199;-65
2023/02/27 10:29:13;;;;;;;1.08;0.90;;;20.40;71.50;;;;;;5028741;28;20197;-64
2023/02/27 10:31:41;;;;;;;1.58;1.00;;;20.40;71.50;;;;;;5039905;28;20241;-64
2023/02/27 10:34:13;;;;;;;2.15;1.33;;;20.30;71.40;;;;;;5035528;28;20204;-62
2023/02/27 10:36:40;;;;;;;1.15;1.00;;;20.30;71.30;;;;;;5036855;28;20195;-64
2023/02/27 10:39:11;;;;;;;1.10;1.00;;;20.40;71.50;;;;;;5042507;28;20258;-62
2023/02/27 10:41:40;;;;;;;1.65;1.10;;;20.40;71.60;;;;;;5044212;28;20219;-60
2023/02/27 10:44:10;;;;;;;1.33;0.90;;;20.40;71.70;;;;;;5041881;28;20208;-64
2023/02/27 10:46:37;;;;;;;1.83;1.27;;;20.40;71.80;;;;;;5035446;28;20207;-63
2023/02/27 10:49:14;;;;;;;1.35;1.10;;;20.40;72.00;;;;;;5044693;28;20227;-64
2023/02/27 10:51:43;;;;;;;5.20;0.82;;;20.40;72.00;;;;;;5040366;28;20809;-68
2023/02/27 10:54:22;;;;;;;1.20;1.00;;;20.40;72.10;;;;;;5038610;28;20721;-67
2023/02/27 10:56:52;;;;;;;1.67;1.00;;;20.40;72.10;;;;;;5045021;28;20218;-61
2023/02/27 10:59:23;;;;;;;1.23;1.00;;;20.50;72.40;;;;;;5047603;28;20226;-62
2023/02/27 11:01:53;;;;;;;1.45;1.10;;;20.50;72.40;;;;;;5041484;28;20210;-61
2023/02/27 11:04:29;;;;;;;1.00;0.90;;;20.40;72.30;;;;;;5042850;28;20206;-68
2023/02/27 11:06:56;;;;;;;2.63;1.00;;;20.40;72.30;;;;;;5040455;28;20190;-68
2023/02/27 11:09:25;;;;;;;1.40;0.98;;;20.40;72.00;;;;;;5041308;28;20205;-67
2023/02/27 11:11:52;;;;;;;1.50;1.20;;;20.50;72.00;;;;;;5039049;28;20196;-61
2023/02/27 11:14:29;;;;;;;1.40;1.00;;;20.50;72.00;;;;;;5038691;28;20198;-65
2023/02/27 11:16:58;;;;;;;1.05;0.85;;;20.50;71.90;;;;;;5045710;28;20187;-57
2023/02/27 11:19:30;;;;;;;1.45;1.27;;;20.50;71.90;;;;;;5024537;28;20702;-60
2023/02/27 11:22:02;;;;;;;2.13;1.00;;;20.60;72.00;;;;;;5020805;28;20215;-63
2023/02/27 11:24:29;;;;;;;5.65;1.10;;;20.60;72.00;;;;;;5020867;28;20203;-64
2023/02/27 11:26:58;;;;;;;1.77;1.15;;;20.60;72.00;;;;;;5032105;28;20191;-63
2023/02/27 11:29:25;;;;;;;1.40;1.10;;;20.60;72.00;;;;;;5039959;28;20204;-67
2023/02/27 11:31:57;;;;;;;1.50;1.00;;;20.60;72.00;;;;;;5049019;28;20210;-64
2023/02/27 11:34:32;;;;;;;1.55;1.00;;;20.60;71.90;;;;;;5044786;28;20188;-62
2023/02/27 11:37:01;;;;;;;1.77;1.17;;;20.60;72.00;;;;;;5051086;28;20187;-63
2023/02/27 11:39:33;;;;;;;1.30;1.13;;;20.60;72.00;;;;;;5047547;28;20250;-57
2023/02/27 11:42:14;;;;;;;1.13;0.80;;;20.60;72.00;;;;;;5049229;28;20594;-62
2023/02/27 11:44:49;;;;;;;2.17;1.02;;;20.60;72.00;;;;;;5046686;28;20203;-62
2023/02/27 11:47:24;;;;;;;1.27;1.10;;;20.60;71.90;;;;;;5046719;28;20602;-64
2023/02/27 11:50:13;;;;;;;1.75;1.10;;;20.60;71.90;;;;;;5048753;28;20195;-62
2023/02/27 11:52:48;;;;;;;0.90;0.80;;;20.60;71.90;;;;;;5050577;28;20187;-60
2023/02/27 11:55:18;;;;;;;1.10;0.80;;;20.70;72.00;;;;;;5046300;28;20191;-62
2023/02/27 11:57:49;;;;;;;1.55;1.42;;;20.60;71.80;;;;;;5048355;28;20649;-57
2023/02/27 12:00:20;;;;;;;2.78;1.00;;;20.70;72.00;;;;;;5044053;28;20192;-65
2023/02/27 12:02:55;;;;;;;2.33;1.07;;;20.70;72.00;;;;;;5045239;28;20198;-58
2023/02/27 12:05:27;;;;;;;1.83;1.13;;;20.70;72.00;;;;;;5039895;28;20457;-60
2023/02/27 12:07:59;;;;;;;1.98;1.00;;;20.70;72.10;;;;;;5049222;28;20670;-65
2023/02/27 12:10:28;;;;;;;1.95;0.88;;;20.70;72.10;;;;;;5042682;28;20200;-67
2023/02/27 12:12:58;;;;;;;1.65;1.25;;;20.70;72.00;;;;;;5048870;28;20606;-65
2023/02/27 12:15:30;;;;;;;1.20;0.88;;;20.70;72.10;;;;;;5040092;28;20895;-64
2023/02/27 12:18:10;;;;;;;1.10;0.80;;;20.70;72.10;;;;;;5035878;28;20223;-64
2023/02/27 12:20:43;;;;;;;1.00;0.80;;;20.70;72.10;;;;;;5041332;28;20206;-64
2023/02/27 12:23:18;;;;;;;1.80;0.80;;;20.70;72.20;;;;;;5044068;28;20230;-65
2023/02/27 12:25:51;;;;;;;1.00;0.70;;;20.70;72.20;;;;;;5045226;28;20290;-66
2023/02/27 12:28:26;;;;;;;1.70;1.05;;;20.80;72.30;;;;;;5046546;28;20476;-65
2023/02/27 12:31:04;;;;;;;2.38;1.10;;;20.70;72.20;;;;;;5035416;28;20199;-65
2023/02/27 12:33:39;;;;;;;1.80;1.20;;;20.70;72.10;;;;;;5048114;28;20718;-64
2023/02/27 12:36:11;;;;;;;6.88;1.23;;;20.70;72.10;;;;;;5048398;28;20191;-65
2023/02/27 12:38:38;;;;;;;2.10;0.90;;;20.70;72.00;;;;;;5046769;28;20234;-64
2023/02/27 12:41:26;;;;;;;1.88;1.55;;;20.70;71.80;;;;;;5040457;28;20200;-62
2023/02/27 12:44:05;;;;;;;2.47;1.13;;;20.70;71.80;;;;;;5043638;28;20233;-63
2023/02/27 12:46:42;;;;;;;1.30;1.20;;;20.80;72.00;;;;;;5050094;28;20462;-64
2023/02/27 12:49:22;;;;;;;2.38;1.30;;;20.80;72.10;;;;;;5042602;28;20195;-63
2023/02/27 12:51:58;;;;;;;1.67;0.95;;;20.80;72.10;;;;;;5042946;28;20210;-63
2023/02/27 12:54:38;;;;;;;2.03;1.00;;;20.80;72.10;;;;;;5041759;28;20207;-65
2023/02/27 12:57:24;;;;;;;2.20;1.10;;;20.80;72.10;;;;;;5038240;28;20297;-65
2023/02/27 13:00:00;;;;;;;1.48;0.90;;;20.80;72.20;;;;;;5045289;28;20222;-65
2023/02/27 13:02:44;;;;;;;3.63;1.63;;;20.80;72.20;;;;;;5044786;28;20564;-68
2023/02/27 13:05:31;;;;;;;1.35;1.00;;;20.80;72.30;;;;;;5038581;28;20465;-68
2023/02/27 13:08:09;;;;;;;1.27;1.00;;;20.80;72.30;;;;;;5037213;28;20196;-65
2023/02/27 13:10:43;;;;;;;1.20;0.85;;;20.90;72.50;;;;;;5042449;28;20227;-63